Agnew, Washington
Current Conditions -  °F | °C
As of 8:53 PM on Friday 19 Dec 2014 (Local Time) from KCLM Reporting Station
Clear Clear  
Wind Chill: 35°   Ceiling: Unl
Heat Index: 40°   Visibility: 10mi
Dew Point: 38°   Wind: 7mph
Humidity: 93%   Direction: 210°SSW
Pressure: 29.83"   Gusts: NA
Location:  48.0203°N, 123.478°W
Report Text: KCLM 200453Z AUTO 21006KT 10SM CLR 04/03 A2983 RMK AO2 SLP102 T00440033 TSNO
Loading
Personal Weather Stations






























Interactive Weather Map New forecast layout! Learn more

10-Day Weather Forecast

Advertisements
Track Severe Weather on mobile